Time;durP1;ratioP1;P1;durP2;ratioP2;P2;SDS_P1;SDS_P2;PMS_P1;PMS_P2;Temp;Humidity;BMP_temperature;BMP_pressure;BME280_temperature;BME280_humidity;BME280_pressure;Samples;Min_cycle;Max_cycle;Signal;HPM_P1;HPM_P2
2021/09/19 00:02:11;;;;;;;;;10.00;9.00;;;;;24.94;47.22;100789.13;5036572;28;51203;-57
2021/09/19 00:04:36;;;;;;;;;10.00;8.25;;;;;24.95;47.63;100795.50;5036285;28;50985;-57
2021/09/19 00:07:01;;;;;;;;;9.00;7.00;;;;;24.94;47.31;100782.75;5036974;28;50969;-58
2021/09/19 00:09:27;;;;;;;;;8.00;8.00;;;;;24.94;47.50;100777.22;5035374;28;50947;-57
2021/09/19 00:11:52;;;;;;;;;9.00;7.75;;;;;24.91;47.47;100780.50;5037167;28;51383;-57
2021/09/19 00:14:18;;;;;;;;;10.00;9.00;;;;;24.91;47.54;100773.03;5033072;28;51576;-57
2021/09/19 00:16:43;;;;;;;;;10.75;9.25;;;;;24.91;47.44;100767.47;5033821;28;51330;-57
2021/09/19 00:19:12;;;;;;;;;6.75;6.25;;;;;24.89;47.47;100775.19;5018455;28;52150;-57
2021/09/19 00:21:38;;;;;;;;;9.25;9.25;;;;;24.88;47.50;100762.44;5017619;28;51131;-58
2021/09/19 00:24:03;;;;;;;;;9.75;8.00;;;;;24.87;47.34;100765.47;5026630;28;51157;-57
2021/09/19 00:26:29;;;;;;;;;10.00;9.25;;;;;24.87;47.64;100762.69;5036523;28;51480;-58
2021/09/19 00:28:54;;;;;;;;;7.25;6.50;;;;;24.86;47.52;100756.31;5026972;28;51064;-57
2021/09/19 00:31:20;;;;;;;;;9.75;8.50;;;;;24.86;47.58;100755.47;5017476;28;51005;-58
2021/09/19 00:33:45;;;;;;;;;8.00;8.00;;;;;24.85;47.57;100759.34;5023391;28;51097;-57
2021/09/19 00:36:10;;;;;;;;;7.75;7.00;;;;;24.85;47.67;100751.03;5025224;28;50911;-57
2021/09/19 00:38:36;;;;;;;;;9.25;6.25;;;;;24.84;47.79;100752.13;5027028;28;51888;-57
2021/09/19 00:41:01;;;;;;;;;8.00;8.00;;;;;24.84;47.59;100752.13;5035489;28;51136;-57
2021/09/19 00:43:26;;;;;;;;;8.00;8.00;;;;;24.83;47.66;100750.44;5019494;28;51726;-57
2021/09/19 00:45:52;;;;;;;;;9.25;7.75;;;;;24.83;47.48;100750.44;5017384;28;50955;-57
2021/09/19 00:48:17;;;;;;;;;9.50;7.50;;;;;24.82;47.71;100751.53;5017988;28;51028;-57
2021/09/19 00:50:43;;;;;;;;;8.25;8.25;;;;;24.81;47.19;100747.09;5015778;28;51002;-58
2021/09/19 00:53:09;;;;;;;;;9.25;8.75;;;;;24.80;47.72;100746.22;5029975;28;51085;-58
2021/09/19 00:55:35;;;;;;;;;6.50;6.50;;;;;24.79;47.70;100743.72;5017256;28;51352;-58
2021/09/19 00:58:04;;;;;;;;;8.50;7.75;;;;;24.79;47.40;100740.94;5017832;28;51101;-58
2021/09/19 01:00:30;;;;;;;;;9.50;9.50;;;;;24.77;47.64;100733.72;5027046;28;51383;-57
2021/09/19 01:02:56;;;;;;;;;8.00;7.00;;;;;24.76;47.64;100740.38;5036480;28;51065;-57
2021/09/19 01:05:23;;;;;;;;;6.50;6.50;;;;;24.77;47.36;100744.81;5018179;28;51037;-58
2021/09/19 01:07:49;;;;;;;;;7.75;7.25;;;;;24.76;47.71;100743.13;5017657;28;51171;-58
2021/09/19 01:10:18;;;;;;;;;8.00;8.00;;;;;24.75;47.60;100741.47;5018198;28;51091;-58
2021/09/19 01:12:43;;;;;;;;;6.50;6.50;;;;;24.75;47.79;100735.09;5016914;28;51199;-58
2021/09/19 01:15:11;;;;;;;;;7.75;7.50;;;;;24.74;47.51;100736.19;5017131;28;51434;-59
2021/09/19 01:17:39;;;;;;;;;11.75;7.00;;;;;24.73;47.64;100738.09;5029909;28;52540;-58
2021/09/19 01:20:09;;;;;;;;;5.50;5.50;;;;;24.73;47.54;100740.88;5016920;28;51411;-59
2021/09/19 01:22:36;;;;;;;;;7.00;7.00;;;;;24.73;47.52;100734.50;5016987;28;51125;-59
2021/09/19 01:25:06;;;;;;;;;7.00;6.25;;;;;24.72;47.81;100741.97;5031556;28;50942;-59
2021/09/19 01:27:31;;;;;;;;;9.00;7.50;;;;;24.73;47.79;100732.56;5022590;28;52083;-58
2021/09/19 01:29:57;;;;;;;;;7.00;7.00;;;;;24.71;47.67;100734.75;5016255;28;51307;-58
2021/09/19 01:32:22;;;;;;;;;8.00;8.00;;;;;24.71;47.74;100737.53;5016523;28;51116;-58
2021/09/19 01:34:50;;;;;;;;;7.00;7.00;;;;;24.71;47.73;100733.91;5028969;28;51341;-57
2021/09/19 01:37:15;;;;;;;;;10.00;7.00;;;;;24.71;47.89;100734.75;5016714;28;51180;-58
2021/09/19 01:39:41;;;;;;;;;6.75;6.75;;;;;24.71;47.74;100725.63;5024057;28;51089;-58
2021/09/19 01:42:07;;;;;;;;;9.00;7.25;;;;;24.70;47.54;100722.00;5017371;28;51241;-59
2021/09/19 01:44:32;;;;;;;;;6.75;5.75;;;;;24.71;47.77;100726.44;5022720;28;51344;-58
2021/09/19 01:46:58;;;;;;;;;6.50;5.50;;;;;24.70;48.15;100730.31;5017242;28;52707;-58
2021/09/19 01:49:23;;;;;;;;;7.25;7.25;;;;;24.70;47.92;100733.09;5016225;28;51133;-59
2021/09/19 01:51:49;;;;;;;;;7.00;5.25;;;;;24.69;48.02;100725.84;5028526;28;51295;-58
2021/09/19 01:54:15;;;;;;;;;7.50;5.50;;;;;24.70;48.13;100732.25;5027822;28;51183;-58
2021/09/19 01:56:40;;;;;;;;;8.25;6.25;;;;;24.69;48.09;100727.78;5032509;28;51000;-59
2021/09/19 01:59:06;;;;;;;;;7.00;7.00;;;;;24.69;47.78;100733.31;5032585;28;51159;-57
2021/09/19 02:01:31;;;;;;;;;5.00;5.00;;;;;24.68;48.20;100729.69;5016014;28;51077;-57
2021/09/19 02:03:56;;;;;;;;;8.00;6.25;;;;;24.68;48.06;100724.16;5020345;28;51183;-57
2021/09/19 02:06:22;;;;;;;;;7.00;6.00;;;;;24.68;48.43;100729.69;5033199;28;52124;-58
2021/09/19 02:08:48;;;;;;;;;6.75;5.75;;;;;24.69;48.16;100727.78;5035371;28;51079;-58
2021/09/19 02:11:14;;;;;;;;;7.00;7.00;;;;;24.68;48.05;100723.31;5031023;28;51172;-58
2021/09/19 02:13:42;;;;;;;;;8.00;5.75;;;;;24.67;48.07;100719.72;5016389;28;51239;-58
2021/09/19 02:16:08;;;;;;;;;7.00;6.00;;;;;24.67;48.17;100716.13;5026264;28;51011;-58
2021/09/19 02:18:35;;;;;;;;;7.00;6.00;;;;;24.67;48.13;100713.34;5015818;28;51360;-57
2021/09/19 02:21:02;;;;;;;;;8.50;7.50;;;;;24.66;48.09;100714.44;5016211;28;51597;-58
2021/09/19 02:23:28;;;;;;;;;7.50;7.25;;;;;24.67;48.31;100718.88;5016656;28;51465;-58
2021/09/19 02:25:53;;;;;;;;;6.75;6.50;;;;;24.65;48.08;100713.59;5032757;28;52190;-58
2021/09/19 02:28:19;;;;;;;;;7.25;6.75;;;;;24.64;48.12;100711.94;5023963;28;51051;-57
2021/09/19 02:30:45;;;;;;;;;7.75;7.25;;;;;24.64;48.33;100700.84;5015898;28;51124;-57
2021/09/19 02:33:10;;;;;;;;;7.00;7.00;;;;;24.63;48.09;100707.47;5016712;28;51216;-56
2021/09/19 02:35:36;;;;;;;;;9.00;8.00;;;;;24.62;47.97;100705.81;5032166;28;50965;-57
2021/09/19 02:38:01;;;;;;;;;12.50;8.00;;;;;24.62;47.94;100713.28;5034285;28;51156;-57
2021/09/19 02:40:27;;;;;;;;;9.25;9.00;;;;;24.61;48.23;100709.69;5024693;28;51391;-58
2021/09/19 02:42:53;;;;;;;;;7.50;7.50;;;;;24.62;48.29;100707.75;5016495;28;51361;-58
2021/09/19 02:45:20;;;;;;;;;12.25;10.50;;;;;24.62;48.33;100707.75;5016381;28;52454;-58
2021/09/19 02:47:45;;;;;;;;;12.25;9.00;;;;;24.61;48.37;100698.59;5015098;28;51485;-57
2021/09/19 02:50:14;;;;;;;;;9.25;8.00;;;;;24.60;48.46;100696.91;5019481;28;51447;-57
2021/09/19 02:52:40;;;;;;;;;11.25;11.25;;;;;24.60;48.33;100693.31;5034372;28;51339;-56
2021/09/19 02:55:06;;;;;;;;;12.75;9.75;;;;;24.59;48.52;100691.59;5026153;28;51122;-58
2021/09/19 02:57:32;;;;;;;;;11.25;11.00;;;;;24.58;48.65;100688.00;5034814;28;50946;-58
2021/09/19 02:59:57;;;;;;;;;10.00;8.50;;;;;24.57;48.77;100682.72;5028244;28;51011;-58
2021/09/19 03:02:22;;;;;;;;;7.75;5.25;;;;;24.57;48.52;100680.78;5016870;28;51347;-58
2021/09/19 03:04:48;;;;;;;;;10.50;9.75;;;;;24.56;49.01;100676.34;5026582;28;51076;-54
2021/09/19 03:07:13;;;;;;;;;9.75;8.50;;;;;24.57;48.78;100674.41;5029614;28;51064;-56
2021/09/19 03:09:38;;;;;;;;;9.00;7.75;;;;;24.56;48.62;100681.03;5028609;28;50989;-57
2021/09/19 03:12:05;;;;;;;;;9.50;8.00;;;;;24.55;48.66;100674.69;5025312;28;51216;-56
2021/09/19 03:14:30;;;;;;;;;8.50;7.75;;;;;24.55;48.47;100682.97;5015177;28;52133;-56
2021/09/19 03:16:55;;;;;;;;;9.25;7.75;;;;;24.54;48.29;100673.00;5016571;28;51281;-56
2021/09/19 03:19:21;;;;;;;;;8.25;7.50;;;;;24.55;48.78;100673.84;5032921;28;51460;-57
2021/09/19 03:21:46;;;;;;;;;8.00;8.00;;;;;24.52;48.83;100677.97;5038145;28;51310;-57
2021/09/19 03:24:11;;;;;;;;;11.00;11.00;;;;;24.53;48.69;100671.31;5029821;28;51422;-57
2021/09/19 03:26:37;;;;;;;;;10.25;9.75;;;;;24.53;48.66;100676.88;5037860;28;51013;-57
2021/09/19 03:29:02;;;;;;;;;10.50;9.00;;;;;24.53;48.59;100681.56;5025275;28;51248;-57
2021/09/19 03:31:27;;;;;;;;;8.00;7.00;;;;;24.53;48.88;100681.56;5020494;28;51242;-57
2021/09/19 03:33:53;;;;;;;;;9.25;8.00;;;;;24.53;48.95;100684.34;5021631;28;51765;-57
2021/09/19 03:36:18;;;;;;;;;9.00;9.00;;;;;24.52;48.72;100674.34;5038268;28;51065;-57
2021/09/19 03:38:43;;;;;;;;;7.75;7.75;;;;;24.51;48.72;100679.06;5036273;28;51184;-57
2021/09/19 03:41:09;;;;;;;;;7.75;7.75;;;;;24.49;48.31;100675.72;5023090;28;51417;-56
2021/09/19 03:43:34;;;;;;;;;9.00;8.00;;;;;24.48;48.75;100682.31;5018484;28;51114;-57
2021/09/19 03:45:59;;;;;;;;;10.50;9.00;;;;;24.49;48.46;100681.25;5019471;28;51159;-56
2021/09/19 03:48:25;;;;;;;;;8.00;6.75;;;;;24.48;48.85;100671.22;5018586;28;51156;-56
2021/09/19 03:50:50;;;;;;;;;7.00;7.00;;;;;24.47;48.53;100681.47;5026337;28;51441;-56
2021/09/19 03:53:16;;;;;;;;;8.50;8.50;;;;;24.47;48.77;100681.47;5036090;28;51503;-56
2021/09/19 03:55:41;;;;;;;;;9.50;7.25;;;;;24.46;48.69;100678.97;5020530;28;50995;-56
2021/09/19 03:58:07;;;;;;;;;6.75;5.25;;;;;24.46;48.62;100682.56;5032422;28;51118;-56
2021/09/19 04:00:32;;;;;;;;;7.50;7.25;;;;;24.45;48.66;100682.81;5037628;28;51034;-56
2021/09/19 04:02:57;;;;;;;;;7.25;7.00;;;;;24.44;48.55;100687.53;5035913;28;51976;-56
2021/09/19 04:05:23;;;;;;;;;11.75;8.50;;;;;24.42;48.69;100677.78;5037217;28;51299;-56
2021/09/19 04:07:48;;;;;;;;;9.00;9.00;;;;;24.43;48.49;100682.25;5037682;28;51134;-56
2021/09/19 04:10:14;;;;;;;;;10.50;8.00;;;;;24.41;48.36;100682.50;5030017;28;51029;-56
2021/09/19 04:12:40;;;;;;;;;12.00;9.00;;;;;24.41;48.08;100679.72;5019233;28;51701;-56
2021/09/19 04:15:06;;;;;;;;;7.50;7.50;;;;;24.37;48.39;100677.69;5028697;28;51019;-55
2021/09/19 04:17:32;;;;;;;;;9.00;8.00;;;;;24.39;48.15;100681.09;5037134;28;51152;-56
2021/09/19 04:19:57;;;;;;;;;10.00;10.00;;;;;24.38;48.17;100679.38;5026364;28;51302;-56
2021/09/19 04:22:24;;;;;;;;;9.00;9.00;;;;;24.37;48.06;100677.69;5019160;28;51196;-56
2021/09/19 04:24:51;;;;;;;;;8.00;8.00;;;;;24.36;48.06;100682.41;5018977;28;51116;-56
2021/09/19 04:27:16;;;;;;;;;10.00;9.00;;;;;24.35;48.18;100691.81;5026311;28;51183;-55
2021/09/19 04:29:42;;;;;;;;;9.75;8.75;;;;;24.35;47.92;100702.03;5018132;28;51361;-55
2021/09/19 04:32:08;;;;;;;;;7.00;7.00;;;;;24.33;47.93;100699.53;5017698;28;51886;-56
2021/09/19 04:34:33;;;;;;;;;7.50;7.00;;;;;24.33;47.73;100699.53;5023888;28;51128;-56
2021/09/19 04:36:59;;;;;;;;;9.25;8.50;;;;;24.32;47.18;100705.31;5028992;28;51350;-56
2021/09/19 04:39:24;;;;;;;;;10.00;9.25;;;;;24.31;47.65;100703.63;5018448;28;51462;-55
2021/09/19 04:41:49;;;;;;;;;11.25;11.25;;;;;24.30;47.37;100701.94;5032489;28;51757;-56
2021/09/19 04:44:15;;;;;;;;;8.00;8.00;;;;;24.28;47.19;100704.97;5019910;28;51032;-56
2021/09/19 04:46:40;;;;;;;;;12.00;10.00;;;;;24.28;46.97;100706.84;5034943;28;51717;-56
2021/09/19 04:49:05;;;;;;;;;8.50;8.25;;;;;24.27;46.73;100716.25;5029860;28;50969;-56
2021/09/19 04:51:31;;;;;;;;;9.25;8.50;;;;;24.27;46.84;100716.25;5034426;28;52124;-56
2021/09/19 04:53:56;;;;;;;;;9.00;9.00;;;;;24.25;46.74;100722.03;5021758;28;51175;-56
2021/09/19 04:56:21;;;;;;;;;12.50;12.50;;;;;24.24;46.63;100719.53;5036789;28;51057;-56
2021/09/19 04:58:47;;;;;;;;;9.25;8.75;;;;;24.24;46.58;100727.84;5036982;28;51167;-55
2021/09/19 05:01:13;;;;;;;;;7.50;7.50;;;;;24.22;46.13;100722.56;5024994;28;52618;-56
2021/09/19 05:03:38;;;;;;;;;10.75;9.25;;;;;24.22;46.44;100713.41;5018412;28;50995;-55
2021/09/19 05:06:03;;;;;;;;;8.50;7.75;;;;;24.21;46.30;100711.75;5017531;28;51164;-56
2021/09/19 05:08:29;;;;;;;;;7.75;7.75;;;;;24.19;46.14;100707.28;5017609;28;51124;-56
2021/09/19 05:10:54;;;;;;;;;9.50;8.00;;;;;24.18;45.99;100716.69;5023717;28;51078;-56
2021/09/19 05:13:20;;;;;;;;;8.75;8.00;;;;;24.18;46.28;100721.38;5018175;28;51246;-56
2021/09/19 05:15:45;;;;;;;;;8.00;8.00;;;;;24.16;46.22;100716.06;5018232;28;51296;-56
2021/09/19 05:18:11;;;;;;;;;9.25;9.25;;;;;24.15;46.32;100710.78;5017587;28;51289;-56
2021/09/19 05:20:36;;;;;;;;;9.25;7.00;;;;;24.15;45.93;100705.25;5018621;28;51374;-56
2021/09/19 05:23:02;;;;;;;;;12.00;10.75;;;;;24.12;45.92;100706.59;5026586;28;50966;-56
2021/09/19 05:25:27;;;;;;;;;8.00;7.00;;;;;24.12;46.06;100709.38;5017153;28;51115;-56
2021/09/19 05:27:53;;;;;;;;;8.00;8.00;;;;;24.11;46.13;100709.63;5025662;28;51263;-56
2021/09/19 05:30:18;;;;;;;;;10.00;10.00;;;;;24.11;45.93;100709.63;5027127;28;53018;-56
2021/09/19 05:32:44;;;;;;;;;11.00;11.00;;;;;24.09;46.14;100720.94;5016858;28;51114;-56
2021/09/19 05:35:10;;;;;;;;;9.00;9.00;;;;;24.09;45.72;100712.66;5016033;28;51021;-56
2021/09/19 05:37:35;;;;;;;;;8.00;8.00;;;;;24.07;45.91;100725.91;5031637;28;51437;-55
2021/09/19 05:40:01;;;;;;;;;9.75;9.00;;;;;24.05;46.08;100728.06;5027363;28;51845;-56
2021/09/19 05:42:27;;;;;;;;;12.25;10.25;;;;;24.04;45.94;100731.06;5030888;28;51128;-55
2021/09/19 05:44:52;;;;;;;;;11.00;9.25;;;;;24.03;45.72;100723.88;5016903;28;51070;-55
2021/09/19 05:47:18;;;;;;;;;10.50;10.00;;;;;24.02;45.94;100731.31;5028096;28;51309;-56
2021/09/19 05:49:43;;;;;;;;;11.00;8.00;;;;;24.01;45.58;100728.81;5032940;28;51814;-56
2021/09/19 05:52:08;;;;;;;;;9.50;8.00;;;;;24.00;45.66;100738.22;5017964;28;51045;-56
2021/09/19 05:54:34;;;;;;;;;7.75;7.75;;;;;24.00;46.06;100740.97;5016762;28;51037;-56
2021/09/19 05:56:59;;;;;;;;;6.50;6.25;;;;;23.99;45.72;100748.44;5026383;28;51220;-57
2021/09/19 05:59:25;;;;;;;;;10.25;10.25;;;;;23.98;45.31;100749.53;5034208;28;54027;-56
2021/09/19 06:01:51;;;;;;;;;9.50;8.25;;;;;23.97;45.64;100755.28;5034395;28;51150;-56
2021/09/19 06:04:17;;;;;;;;;9.00;9.00;;;;;23.96;45.49;100748.91;5035571;28;51199;-56
2021/09/19 06:06:42;;;;;;;;;9.75;8.75;;;;;23.96;45.33;100748.91;5031535;28;51141;-56
2021/09/19 06:09:07;;;;;;;;;7.50;7.50;;;;;23.94;45.26;100751.09;5019151;28;51009;-56
2021/09/19 06:11:33;;;;;;;;;7.75;6.25;;;;;23.93;45.87;100754.94;5029247;28;51234;-56
2021/09/19 06:13:58;;;;;;;;;10.50;10.50;;;;;23.93;45.52;100763.25;5028050;28;51471;-56
2021/09/19 06:16:23;;;;;;;;;8.00;6.50;;;;;23.91;45.39;100759.91;5023317;28;50949;-56
2021/09/19 06:18:49;;;;;;;;;10.75;9.50;;;;;23.91;45.67;100748.81;5033562;28;51757;-56
2021/09/19 06:21:14;;;;;;;;;10.25;9.00;;;;;23.90;45.56;100761.81;5016216;28;51078;-56
2021/09/19 06:23:39;;;;;;;;;8.75;8.25;;;;;23.89;45.61;100757.38;5016354;28;51050;-55
2021/09/19 06:26:05;;;;;;;;;8.25;7.25;;;;;23.89;45.37;100759.31;5018983;28;51124;-56
2021/09/19 06:28:30;;;;;;;;;9.00;9.00;;;;;23.88;45.47;100763.16;5019863;28;51799;-57
2021/09/19 06:30:55;;;;;;;;;8.25;8.25;;;;;23.87;45.28;100764.25;5034273;28;51152;-57
2021/09/19 06:33:21;;;;;;;;;8.50;8.50;;;;;23.86;45.37;100759.78;5035451;28;51176;-56
2021/09/19 06:35:47;;;;;;;;;6.00;6.00;;;;;23.85;45.37;100758.09;5027693;28;51092;-56
2021/09/19 06:38:13;;;;;;;;;7.25;7.00;;;;;23.85;45.31;100766.41;5028162;28;51079;-56
2021/09/19 06:40:38;;;;;;;;;8.75;8.75;;;;;23.84;45.15;100762.78;5024824;28;51520;-56
2021/09/19 06:43:04;;;;;;;;;9.50;9.25;;;;;23.84;45.19;100761.97;5033812;28;51298;-56
2021/09/19 06:45:29;;;;;;;;;10.50;8.75;;;;;23.84;45.08;100761.97;5018924;28;52311;-56
2021/09/19 06:47:55;;;;;;;;;9.00;9.00;;;;;23.83;45.03;100760.28;5015488;28;50950;-55
2021/09/19 06:50:20;;;;;;;;;10.00;9.00;;;;;23.82;45.59;100756.69;5028581;28;50970;-56
2021/09/19 06:52:46;;;;;;;;;8.25;8.25;;;;;23.83;45.54;100757.53;5023178;28;51144;-57
2021/09/19 06:55:11;;;;;;;;;8.25;7.50;;;;;23.82;45.33;100770.50;5016490;28;50979;-57
2021/09/19 06:57:36;;;;;;;;;9.50;9.50;;;;;23.83;45.41;100771.34;5027136;28;52343;-57
2021/09/19 07:00:04;;;;;;;;;10.25;10.00;;;;;23.82;45.97;100775.19;5027687;28;52642;-58
2021/09/19 07:02:29;;;;;;;;;7.25;7.25;;;;;23.83;45.19;100774.13;5015815;28;51072;-58
2021/09/19 07:04:55;;;;;;;;;11.00;8.75;;;;;23.84;45.40;100781.31;5034197;28;51158;-56
2021/09/19 07:07:20;;;;;;;;;10.50;8.00;;;;;23.84;45.74;100784.09;5025930;28;52595;-58
2021/09/19 07:09:45;;;;;;;;;9.50;9.25;;;;;23.84;45.56;100775.78;5028279;28;51069;-57
2021/09/19 07:12:11;;;;;;;;;10.50;10.50;;;;;23.84;45.77;100784.94;5034745;28;51374;-58
2021/09/19 07:14:36;;;;;;;;;11.75;11.75;;;;;23.85;45.53;100780.22;5018974;28;51259;-58
2021/09/19 07:17:02;;;;;;;;;11.25;9.25;;;;;23.85;45.17;100783.00;5021714;28;51529;-56
2021/09/19 07:19:27;;;;;;;;;12.00;10.00;;;;;23.84;45.38;100796.00;5033477;28;51041;-57
2021/09/19 07:21:53;;;;;;;;;12.25;8.00;;;;;23.84;45.61;100790.47;5026116;28;51243;-59
2021/09/19 07:24:19;;;;;;;;;9.00;8.00;;;;;23.86;45.76;100790.22;5027341;28;51228;-58
2021/09/19 07:26:44;;;;;;;;;11.25;9.50;;;;;23.85;45.29;100794.91;5025770;28;52089;-58
2021/09/19 07:29:10;;;;;;;;;9.75;8.50;;;;;23.87;45.51;100800.22;5028887;28;51315;-58
2021/09/19 07:31:35;;;;;;;;;8.75;7.00;;;;;23.86;45.62;100802.16;5026603;28;51200;-56
2021/09/19 07:34:01;;;;;;;;;10.25;10.00;;;;;23.85;45.39;100814.25;5023530;28;52074;-58
2021/09/19 07:36:32;;;;;;;;;8.50;8.00;;;;;23.86;45.30;100813.22;5030631;28;51894;-59
2021/09/19 07:39:04;;;;;;;;;11.00;11.00;;;;;23.87;45.33;100811.28;5025022;28;51373;-57
2021/09/19 07:41:30;;;;;;;;;9.75;9.75;;;;;23.88;45.68;100811.03;5025602;28;51283;-58
2021/09/19 07:43:56;;;;;;;;;10.00;10.00;;;;;23.89;45.39;100814.63;5028443;28;51306;-59
2021/09/19 07:46:22;;;;;;;;;11.00;9.00;;;;;23.90;45.50;100824.63;5028445;28;51162;-60
2021/09/19 07:48:49;;;;;;;;;10.00;9.00;;;;;23.90;45.25;100827.38;5026064;28;51116;-58
2021/09/19 07:51:15;;;;;;;;;13.75;10.00;;;;;23.92;45.38;100821.59;5022383;28;51161;-61
2021/09/19 07:53:41;;;;;;;;;9.50;9.50;;;;;23.93;45.87;100829.66;5018854;28;50916;-62
2021/09/19 07:56:06;;;;;;;;;9.00;9.00;;;;;23.94;45.87;100825.78;5032806;28;51054;-59
2021/09/19 07:58:32;;;;;;;;;9.75;8.75;;;;;23.95;45.64;100824.69;5016700;28;51021;-58
2021/09/19 08:00:57;;;;;;;;;10.25;9.00;;;;;23.96;45.63;100834.69;5024960;28;51006;-59
2021/09/19 08:03:23;;;;;;;;;9.50;9.50;;;;;23.96;45.68;100837.44;5017000;28;51190;-59
2021/09/19 08:05:48;;;;;;;;;9.75;9.75;;;;;23.97;45.65;100835.50;5034008;28;51200;-59
2021/09/19 08:08:13;;;;;;;;;10.00;7.50;;;;;23.99;45.92;100841.66;5031930;28;51119;-59
2021/09/19 08:10:39;;;;;;;;;11.25;10.00;;;;;24.00;45.86;100843.34;5037654;28;51296;-59
2021/09/19 08:13:04;;;;;;;;;10.50;8.75;;;;;24.01;45.66;100851.41;5036125;28;51211;-58
2021/09/19 08:15:30;;;;;;;;;11.00;9.25;;;;;24.01;45.94;100845.88;5032243;28;51739;-58
2021/09/19 08:17:55;;;;;;;;;11.00;10.75;;;;;24.03;45.94;100843.69;5033548;28;51216;-58
2021/09/19 08:20:21;;;;;;;;;9.50;8.50;;;;;24.04;45.94;100848.13;5032393;28;51119;-59
2021/09/19 08:22:46;;;;;;;;;10.00;10.00;;;;;24.07;45.78;100850.44;5030053;28;51094;-60
2021/09/19 08:25:13;;;;;;;;;9.75;8.00;;;;;24.08;45.75;100856.81;5032414;28;51083;-56
2021/09/19 08:27:40;;;;;;;;;9.00;7.75;;;;;24.09;45.71;100853.78;5034984;28;51008;-59
2021/09/19 08:30:08;;;;;;;;;10.00;7.25;;;;;24.11;46.06;100859.06;5029630;28;51142;-59
2021/09/19 08:32:33;;;;;;;;;11.50;11.00;;;;;24.12;45.92;100866.28;5035877;28;51358;-57
2021/09/19 08:34:58;;;;;;;;;10.25;9.50;;;;;24.13;45.97;100862.41;5023569;28;51861;-56
2021/09/19 08:37:24;;;;;;;;;10.75;9.75;;;;;24.14;46.01;100856.63;5017496;28;51093;-56
2021/09/19 08:39:49;;;;;;;;;8.50;8.50;;;;;24.14;45.84;100866.88;5024829;28;51346;-60
2021/09/19 08:42:14;;;;;;;;;11.75;8.75;;;;;24.15;45.79;100874.09;5031294;28;51047;-59
2021/09/19 08:44:40;;;;;;;;;9.50;9.25;;;;;24.17;46.15;100877.44;5032542;28;52696;-58
2021/09/19 08:47:05;;;;;;;;;9.50;9.50;;;;;24.17;45.64;100878.28;5032418;28;51163;-58
2021/09/19 08:49:31;;;;;;;;;13.00;12.00;;;;;24.20;46.00;100888.03;5030361;28;51173;-59
2021/09/19 08:51:57;;;;;;;;;14.00;11.50;;;;;24.22;45.90;100883.09;5027597;28;51061;-57
2021/09/19 08:54:23;;;;;;;;;8.00;6.25;;;;;24.23;45.71;100878.38;5027247;28;52206;-58
2021/09/19 08:56:48;;;;;;;;;13.50;10.50;;;;;24.24;45.80;100882.84;5030527;28;51105;-59
2021/09/19 08:59:13;;;;;;;;;10.25;9.75;;;;;24.24;45.77;100875.38;5021670;28;51541;-58
2021/09/19 09:02:02;;;;;;;;;9.75;8.50;;;;;24.26;45.82;100878.72;5029343;28;51046;-59
2021/09/19 09:04:28;;;;;;;;;8.00;8.00;;;;;24.26;45.51;100887.03;5035303;28;52069;-59
2021/09/19 09:06:54;;;;;;;;;10.00;8.25;;;;;24.26;45.75;100880.66;5019570;28;51108;-59
2021/09/19 09:09:20;;;;;;;;;10.75;9.50;;;;;24.26;45.59;100888.97;5033611;28;51396;-59
2021/09/19 09:12:11;;;;;;;;;12.25;10.25;;;;;24.27;45.59;100891.47;5027141;28;51172;-60
2021/09/19 09:14:40;;;;;;;;;10.50;8.00;;;;;24.28;45.84;100890.41;5024213;28;51126;-60
2021/09/19 09:17:19;;;;;;;;;12.25;9.25;;;;;24.29;45.69;100902.34;5025572;28;51883;-59
2021/09/19 09:19:57;;;;;;;;;9.75;9.50;;;;;24.30;45.91;100910.38;5018980;28;51872;-60
2021/09/19 09:22:25;;;;;;;;;12.00;10.75;;;;;24.30;45.79;100904.84;5022038;28;51010;-61
2021/09/19 09:25:08;;;;;;;;;12.50;11.25;;;;;24.32;45.93;100912.94;5034140;28;51063;-60
2021/09/19 09:27:45;;;;;;;;;10.75;10.00;;;;;24.31;45.50;100909.31;5028888;28;51228;-61
2021/09/19 09:30:23;;;;;;;;;11.75;11.00;;;;;24.32;45.85;100912.94;5035765;28;51126;-60
2021/09/19 09:32:59;;;;;;;;;12.00;9.25;;;;;24.32;45.78;100915.69;5016538;28;51273;-60
2021/09/19 09:35:41;;;;;;;;;9.25;8.25;;;;;24.33;45.78;100921.00;5019640;28;51093;-60
2021/09/19 09:38:21;;;;;;;;;9.00;9.00;;;;;24.33;45.73;100922.91;5024236;28;51248;-60
2021/09/19 09:40:48;;;;;;;;;6.00;6.00;;;;;24.32;46.00;100919.31;5016675;28;50981;-60
2021/09/19 09:43:15;;;;;;;;;9.75;9.75;;;;;24.32;45.61;100916.53;5015905;28;51399;-59
2021/09/19 09:45:43;;;;;;;;;11.25;10.50;;;;;24.34;45.53;100910.75;5024827;28;51356;-61
2021/09/19 09:48:30;;;;;;;;;11.75;10.00;;;;;24.34;45.53;100913.53;5019724;28;51132;-59
2021/09/19 09:50:59;;;;;;;;;11.25;9.75;;;;;24.34;45.62;100916.28;5035530;28;51010;-60
2021/09/19 09:53:25;;;;;;;;;10.75;8.50;;;;;24.34;46.00;100919.06;5035859;28;51155;-60
2021/09/19 09:55:52;;;;;;;;;10.00;10.00;;;;;24.36;45.68;100925.19;5034039;28;52005;-61
2021/09/19 09:58:19;;;;;;;;;10.75;9.75;;;;;24.35;45.66;100920.75;5028367;28;51302;-60
2021/09/19 10:00:46;;;;;;;;;13.75;11.75;;;;;24.36;45.58;100925.19;5016076;28;50984;-61
2021/09/19 10:03:12;;;;;;;;;13.25;10.25;;;;;24.36;45.58;100926.03;5016382;28;50997;-60
2021/09/19 10:05:39;;;;;;;;;10.75;10.75;;;;;24.37;45.46;100929.63;5017533;28;51748;-60
2021/09/19 10:08:04;;;;;;;;;13.00;12.00;;;;;24.37;45.80;100932.41;5031518;28;51100;-60
2021/09/19 10:10:33;;;;;;;;;14.00;13.00;;;;;24.37;45.45;100929.63;5035046;28;51191;-60
2021/09/19 10:12:59;;;;;;;;;12.50;12.25;;;;;24.38;45.22;100934.06;5034964;28;51116;-60
2021/09/19 10:15:26;;;;;;;;;10.75;10.50;;;;;24.37;45.63;100933.25;5033360;28;52192;-60
2021/09/19 10:17:53;;;;;;;;;15.75;13.50;;;;;24.39;45.25;100938.56;5031296;28;51162;-60
2021/09/19 10:20:22;;;;;;;;;16.75;12.00;;;;;24.39;45.55;100931.09;5035611;28;51355;-61
2021/09/19 10:22:59;;;;;;;;;12.75;11.25;;;;;24.41;45.59;100939.16;5033209;28;51093;-60
2021/09/19 10:25:24;;;;;;;;;11.25;10.50;;;;;24.41;45.47;100933.59;5032517;28;51710;-62
2021/09/19 10:27:50;;;;;;;;;13.00;11.00;;;;;24.42;45.55;100935.28;5029426;28;50981;-60
2021/09/19 10:30:18;;;;;;;;;11.00;11.00;;;;;24.42;45.50;100927.81;5024814;28;51045;-61
2021/09/19 10:32:46;;;;;;;;;13.25;13.25;;;;;24.43;45.42;100928.66;5034815;28;51423;-60
2021/09/19 10:35:18;;;;;;;;;13.50;11.00;;;;;24.42;45.22;100927.81;5030125;28;52914;-59
2021/09/19 10:38:04;;;;;;;;;14.75;13.00;;;;;24.43;45.47;100923.97;5031843;28;51619;-61
2021/09/19 10:40:36;;;;;;;;;14.25;10.75;;;;;24.44;45.41;100922.03;5034254;28;51148;-59
2021/09/19 10:43:22;;;;;;;;;12.75;9.50;;;;;24.45;45.26;100920.94;5022136;28;51203;-61
2021/09/19 10:45:52;;;;;;;;;13.00;12.50;;;;;24.45;45.42;100926.47;5014944;28;51048;-60
2021/09/19 10:48:27;;;;;;;;;15.00;12.25;;;;;24.45;45.25;100926.47;5024198;28;51293;-60
2021/09/19 10:51:07;;;;;;;;;12.25;12.00;;;;;24.46;45.58;100931.75;5033999;28;51041;-60
2021/09/19 10:53:45;;;;;;;;;9.75;9.25;;;;;24.47;45.87;100930.69;5033157;28;51092;-62
2021/09/19 10:56:11;;;;;;;;;14.75;11.75;;;;;24.48;45.93;100924.03;5033381;28;52227;-60
2021/09/19 10:58:47;;;;;;;;;10.75;10.75;;;;;24.49;45.98;100927.69;5020012;28;51125;-59
2021/09/19 11:01:19;;;;;;;;;11.75;11.75;;;;;24.51;46.00;100930.19;5015920;28;51159;-60
2021/09/19 11:03:59;;;;;;;;;13.25;12.50;;;;;24.53;46.07;100930.78;5022096;28;51274;-60
2021/09/19 11:06:35;;;;;;;;;12.75;11.50;;;;;24.54;46.04;100927.78;5015395;28;51996;-60
2021/09/19 11:09:20;;;;;;;;;16.25;11.25;;;;;24.55;45.75;100923.91;5027212;28;51329;-60
2021/09/19 11:12:05;;;;;;;;;13.50;12.00;;;;;24.57;45.89;100927.25;5033481;28;51153;-60
2021/09/19 11:15:00;;;;;;;;;11.75;10.50;;;;;24.58;46.30;100920.63;5031148;28;51206;-60
2021/09/19 11:17:28;;;;;;;;;10.25;10.25;;;;;24.61;46.57;100924.84;5013988;28;51785;-61
2021/09/19 11:20:12;;;;;;;;;11.00;11.00;;;;;24.62;46.24;100929.31;5026182;28;51333;-59